Time;durP1;ratioP1;P1;durP2;ratioP2;P2;SDS_P1;SDS_P2;PMS_P1;PMS_P2;Temp;Humidity;BMP_temperature;BMP_pressure;BME280_temperature;BME280_humidity;BME280_pressure;Samples;Min_cycle;Max_cycle;Signal;HPM_P1;HPM_P2
2022/12/22 03:25:57;;;;;;;5.50;3.80;;;0.80;99.90;;;;;;5090826;28;20991;-48
2022/12/22 03:28:27;;;;;;;3.70;3.40;;;0.80;99.90;;;;;;5091254;28;20518;-48
2022/12/22 03:30:56;;;;;;;4.13;2.67;;;0.80;99.90;;;;;;5090644;28;20538;-47
2022/12/22 03:33:24;;;;;;;2.53;2.30;;;0.80;99.90;;;;;;5090769;28;20479;-48
2022/12/22 03:35:51;;;;;;;2.20;2.00;;;0.80;99.90;;;;;;5090373;28;20497;-48
2022/12/22 03:38:18;;;;;;;3.00;2.40;;;0.90;99.90;;;;;;5091087;28;20528;-48
2022/12/22 03:40:45;;;;;;;2.20;1.90;;;1.10;99.90;;;;;;5090868;28;20503;-49
2022/12/22 03:49:10;;;;;;;6.27;4.50;;;1.10;99.90;;;;;;5089238;28;20774;-48
2022/12/22 03:51:39;;;;;;;7.37;5.53;;;1.10;99.90;;;;;;5087777;28;20883;-48
2022/12/22 03:54:06;;;;;;;7.87;7.03;;;1.00;99.90;;;;;;5092939;28;20558;-48
2022/12/22 03:56:33;;;;;;;10.03;7.43;;;1.00;99.90;;;;;;5093009;28;20511;-49
2022/12/22 03:59:00;;;;;;;9.43;8.27;;;0.80;99.90;;;;;;5092737;28;20536;-51
2022/12/22 04:01:27;;;;;;;8.43;5.93;;;0.80;99.90;;;;;;5092424;28;20522;-49
2022/12/22 04:03:55;;;;;;;3.40;3.10;;;0.50;99.90;;;;;;5072427;28;20470;-48
2022/12/22 04:06:22;;;;;;;2.90;2.70;;;0.50;99.90;;;;;;5082495;28;20956;-48
2022/12/22 04:08:49;;;;;;;3.03;2.50;;;0.50;99.90;;;;;;5088642;28;21068;-48
2022/12/22 04:14:02;;;;;;;3.73;3.27;;;1.10;99.90;;;;;;5093609;28;21051;-48
2022/12/22 04:16:29;;;;;;;7.27;5.30;;;1.00;99.90;;;;;;5093611;28;20883;-51
2022/12/22 04:18:58;;;;;;;7.30;4.90;;;0.90;99.90;;;;;;5093825;28;20813;-48
2022/12/22 04:21:25;;;;;;;4.20;3.80;;;0.90;99.90;;;;;;5094178;28;20885;-48
2022/12/22 04:23:52;;;;;;;7.00;4.90;;;1.00;99.90;;;;;;5092359;28;20523;-49
2022/12/22 04:26:19;;;;;;;6.00;5.40;;;1.00;99.90;;;;;;5092142;28;20526;-48
2022/12/22 04:28:46;;;;;;;4.40;4.00;;;1.00;99.90;;;;;;5092205;28;20878;-49
2022/12/22 04:31:13;;;;;;;5.87;5.37;;;1.00;99.90;;;;;;5091792;28;20578;-49
2022/12/22 04:33:40;;;;;;;6.20;5.00;;;0.90;99.90;;;;;;5091852;28;20483;-51
2022/12/22 04:36:09;;;;;;;5.60;4.60;;;0.90;99.90;;;;;;5091990;28;20817;-48
2022/12/22 04:38:37;;;;;;;4.70;3.77;;;0.90;99.90;;;;;;5092733;28;20493;-51
2022/12/22 04:41:04;;;;;;;4.17;3.70;;;1.10;99.90;;;;;;5092421;28;21247;-48
2022/12/22 04:43:31;;;;;;;3.80;3.40;;;1.20;99.90;;;;;;5091447;28;20505;-49
2022/12/22 04:45:58;;;;;;;6.57;5.90;;;1.30;99.90;;;;;;5091868;28;20761;-47
2022/12/22 04:48:26;;;;;;;6.63;5.93;;;1.00;99.90;;;;;;5090992;28;20558;-52
2022/12/22 04:50:55;;;;;;;6.03;4.87;;;1.10;99.90;;;;;;5091827;28;21045;-51
2022/12/22 04:53:24;;;;;;;7.77;7.07;;;1.20;99.90;;;;;;5090516;28;20536;-51
2022/12/22 04:55:55;;;;;;;9.40;8.40;;;1.10;99.90;;;;;;5091181;28;20531;-49
2022/12/22 04:58:22;;;;;;;13.93;10.30;;;1.00;99.90;;;;;;5093514;28;20467;-48
2022/12/22 05:00:49;;;;;;;8.03;7.23;;;0.70;99.90;;;;;;5093221;28;20554;-48
2022/12/22 05:03:16;;;;;;;7.87;7.07;;;0.80;99.90;;;;;;5091553;28;20476;-50
2022/12/22 05:05:43;;;;;;;7.70;6.60;;;0.90;99.90;;;;;;5093088;28;20523;-48
2022/12/22 05:08:10;;;;;;;9.30;7.13;;;1.00;99.90;;;;;;5093354;28;20511;-49
2022/12/22 05:10:38;;;;;;;7.13;6.43;;;1.00;99.90;;;;;;5092766;28;20505;-48
2022/12/22 05:13:05;;;;;;;7.47;6.77;;;0.90;99.90;;;;;;5092555;28;20866;-48
2022/12/22 05:15:33;;;;;;;8.40;6.77;;;0.90;99.90;;;;;;5092602;28;20487;-48
2022/12/22 05:18:01;;;;;;;5.20;4.70;;;0.90;99.90;;;;;;5092743;28;20467;-48
2022/12/22 05:20:28;;;;;;;4.37;4.07;;;1.10;99.90;;;;;;5092388;28;20555;-48
2022/12/22 05:22:55;;;;;;;3.30;3.00;;;1.20;99.90;;;;;;5091981;28;20526;-53
2022/12/22 05:25:22;;;;;;;3.13;2.70;;;1.30;99.90;;;;;;5091835;28;20945;-48
2022/12/22 05:27:51;;;;;;;4.00;2.70;;;1.40;99.90;;;;;;5092226;28;20575;-49
2022/12/22 05:30:19;;;;;;;4.20;3.80;;;1.50;99.90;;;;;;5092403;28;20543;-48
2022/12/22 05:32:47;;;;;;;4.10;2.50;;;1.40;99.90;;;;;;5090251;28;20448;-48
2022/12/22 05:35:14;;;;;;;3.07;2.80;;;1.50;99.90;;;;;;5080461;28;20532;-51
2022/12/22 05:37:41;;;;;;;3.03;2.30;;;1.60;99.90;;;;;;5078676;28;20502;-48
2022/12/22 05:40:09;;;;;;;10.67;8.27;;;1.50;99.90;;;;;;5089324;28;20563;-48
2022/12/22 05:42:36;;;;;;;19.03;10.83;;;1.20;99.90;;;;;;5089575;28;20555;-49
2022/12/22 05:45:08;;;;;;;9.77;8.40;;;0.70;99.90;;;;;;5089878;28;20523;-50
2022/12/22 05:47:35;;;;;;;9.17;8.17;;;0.70;99.90;;;;;;5090706;28;20554;-49
2022/12/22 05:50:02;;;;;;;9.10;6.83;;;0.80;99.90;;;;;;5092438;28;20878;-48
2022/12/22 05:52:29;;;;;;;6.77;4.73;;;0.70;99.90;;;;;;5090927;28;20444;-47
2022/12/22 05:54:56;;;;;;;2.73;2.30;;;1.00;99.90;;;;;;5070348;28;20518;-46
2022/12/22 05:57:23;;;;;;;3.87;3.47;;;1.50;99.90;;;;;;5083874;28;20531;-50
2022/12/22 05:59:50;;;;;;;4.33;3.90;;;1.40;99.90;;;;;;5090744;28;20555;-48
2022/12/22 06:02:18;;;;;;;12.17;9.27;;;1.40;99.90;;;;;;5090358;28;20491;-49
2022/12/22 06:04:45;;;;;;;12.97;10.27;;;1.00;99.90;;;;;;5089575;28;20898;-48
2022/12/22 06:07:12;;;;;;;13.20;8.87;;;0.80;99.90;;;;;;5091067;28;20500;-48
2022/12/22 06:09:39;;;;;;;13.30;10.70;;;0.80;99.90;;;;;;5091841;28;20543;-48
2022/12/22 06:12:06;;;;;;;16.73;10.00;;;0.70;99.90;;;;;;5086290;28;20472;-48
2022/12/22 06:14:33;;;;;;;12.70;9.43;;;0.70;99.90;;;;;;5088953;28;20440;-48
2022/12/22 06:17:00;;;;;;;14.27;11.03;;;0.70;99.90;;;;;;5079141;28;20532;-50
2022/12/22 06:19:29;;;;;;;12.93;9.90;;;0.90;99.90;;;;;;5089864;28;20460;-50
2022/12/22 06:21:55;;;;;;;10.23;9.00;;;1.00;99.90;;;;;;5086559;28;20471;-48
2022/12/22 06:24:22;;;;;;;9.47;8.47;;;0.90;99.90;;;;;;5082532;28;20492;-48
2022/12/22 06:26:49;;;;;;;9.00;6.50;;;0.80;99.90;;;;;;5075340;28;20476;-49
2022/12/22 06:29:16;;;;;;;11.80;7.13;;;1.00;99.90;;;;;;5071274;28;20524;-50
2022/12/22 06:31:43;;;;;;;7.07;6.37;;;1.10;99.90;;;;;;5071728;28;20826;-47
2022/12/22 06:34:11;;;;;;;7.63;6.83;;;1.20;99.90;;;;;;5071227;28;20479;-48
2022/12/22 06:36:39;;;;;;;6.43;5.33;;;1.20;99.90;;;;;;5071458;28;20496;-51
2022/12/22 06:39:06;;;;;;;5.30;4.27;;;1.40;99.90;;;;;;5071147;28;20480;-48
2022/12/22 06:44:18;;;;;;;14.43;7.30;;;1.70;99.90;;;;;;5071281;28;20495;-49
2022/12/22 06:46:44;;;;;;;9.13;8.23;;;1.60;99.90;;;;;;5071130;28;20528;-50
2022/12/22 06:49:11;;;;;;;10.57;8.60;;;1.40;99.90;;;;;;5069990;28;20479;-48
2022/12/22 06:51:40;;;;;;;10.07;8.17;;;1.30;99.90;;;;;;5069860;28;20834;-51
2022/12/22 06:54:07;;;;;;;8.40;7.57;;;1.20;99.90;;;;;;5069731;28;20548;-51
2022/12/22 06:56:33;;;;;;;9.20;8.30;;;1.20;99.90;;;;;;5069577;28;20473;-47
2022/12/22 06:59:00;;;;;;;7.33;6.63;;;0.80;99.90;;;;;;5069582;28;20832;-49
2022/12/22 07:01:27;;;;;;;7.93;7.23;;;0.60;99.90;;;;;;5069806;28;20539;-49
2022/12/22 07:03:54;;;;;;;7.33;6.63;;;0.50;99.90;;;;;;5069337;28;20929;-49
2022/12/22 07:06:22;;;;;;;9.03;7.20;;;0.70;99.90;;;;;;5069639;28;20532;-48
2022/12/22 07:08:50;;;;;;;10.80;8.00;;;0.70;99.90;;;;;;5069463;28;20476;-49
2022/12/22 07:11:18;;;;;;;8.43;7.43;;;0.90;99.90;;;;;;5069578;28;20492;-48
2022/12/22 07:13:45;;;;;;;7.63;5.63;;;0.60;99.90;;;;;;5069494;28;20472;-48
2022/12/22 07:16:12;;;;;;;21.97;16.37;;;0.90;99.90;;;;;;5069642;28;20869;-47
2022/12/22 07:18:40;;;;;;;13.93;12.00;;;1.00;99.90;;;;;;5070027;28;20524;-49
2022/12/22 07:21:09;;;;;;;15.50;13.87;;;1.20;99.90;;;;;;5069407;28;20495;-50
2022/12/22 07:23:37;;;;;;;7.60;6.90;;;1.00;99.90;;;;;;5069115;28;20476;-49
2022/12/22 07:26:06;;;;;;;9.00;7.30;;;0.70;99.90;;;;;;5070665;28;20792;-48
2022/12/22 07:28:33;;;;;;;9.40;7.37;;;1.00;99.90;;;;;;5074757;28;20572;-49
2022/12/22 07:31:01;;;;;;;7.50;6.57;;;1.00;99.90;;;;;;5074753;28;20457;-47
2022/12/22 07:33:28;;;;;;;8.00;7.10;;;0.90;99.90;;;;;;5074840;28;20528;-48
2022/12/22 07:36:03;;;;;;;7.63;6.87;;;0.80;99.90;;;;;;5083117;28;20954;-48
2022/12/22 07:38:37;;;;;;;13.30;9.00;;;0.70;99.90;;;;;;5084238;28;20464;-49
2022/12/22 07:42:43;;;;;;;12.37;11.17;;;0.70;99.90;;;;;;5083074;28;20544;-50
2022/12/22 07:43:54;;;;;;;13.73;11.50;;;0.60;99.90;;;;;;5084506;28;20435;-48
2022/12/22 07:46:22;;;;;;;10.57;8.40;;;0.70;99.90;;;;;;5082881;28;20437;-49
2022/12/22 07:51:34;;;;;;;8.57;7.67;;;1.00;99.90;;;;;;5084151;28;20435;-47
2022/12/22 07:54:01;;;;;;;13.20;9.50;;;0.70;99.90;;;;;;5085617;28;20439;-49
2022/12/22 07:56:29;;;;;;;8.23;7.43;;;0.70;99.90;;;;;;5083585;28;20437;-49
2022/12/22 07:58:56;;;;;;;10.00;9.00;;;0.60;99.90;;;;;;5083196;28;20432;-48
2022/12/22 08:01:23;;;;;;;11.47;9.67;;;0.50;99.90;;;;;;5085079;28;20531;-49
2022/12/22 08:03:50;;;;;;;10.67;8.50;;;0.30;99.90;;;;;;5083204;28;20532;-48
2022/12/22 08:06:17;;;;;;;13.80;9.20;;;0.40;99.90;;;;;;5081534;28;20459;-50
2022/12/22 08:08:44;;;;;;;12.40;11.13;;;0.40;99.90;;;;;;5081205;28;20547;-48
2022/12/22 08:11:11;;;;;;;13.80;11.80;;;0.50;99.90;;;;;;5082125;28;20530;-48
2022/12/22 08:13:40;;;;;;;14.07;9.47;;;0.70;99.90;;;;;;5082958;28;20520;-47
2022/12/22 08:16:09;;;;;;;13.13;6.93;;;0.70;99.90;;;;;;5081567;28;20441;-48
2022/12/22 08:18:37;;;;;;;9.53;6.17;;;0.70;99.90;;;;;;5081702;28;20464;-48
2022/12/22 08:21:05;;;;;;;9.60;6.87;;;0.90;99.90;;;;;;5084729;28;20890;-48
2022/12/22 08:23:32;;;;;;;8.93;6.73;;;0.80;99.90;;;;;;5083116;28;20469;-48
2022/12/22 08:26:05;;;;;;;9.23;6.10;;;0.90;99.90;;;;;;5082506;28;20440;-48
2022/12/22 08:28:36;;;;;;;13.00;10.20;;;1.00;99.90;;;;;;5083404;28;20473;-48
2022/12/22 08:31:04;;;;;;;69.87;15.43;;;0.90;99.90;;;;;;5081724;28;20536;-50
2022/12/22 08:33:31;;;;;;;26.53;14.90;;;0.60;99.90;;;;;;5083386;28;20956;-49
2022/12/22 08:35:59;;;;;;;11.10;9.40;;;-0.20;99.90;;;;;;5084267;28;20487;-48
2022/12/22 08:38:26;;;;;;;11.90;9.67;;;0.20;99.90;;;;;;5081207;28;20516;-48
2022/12/22 08:40:53;;;;;;;9.63;7.13;;;0.50;99.90;;;;;;5084619;28;20468;-48
2022/12/22 08:43:21;;;;;;;9.17;8.37;;;0.60;99.90;;;;;;5083597;28;20551;-48
2022/12/22 08:45:48;;;;;;;9.43;7.00;;;0.60;99.90;;;;;;5081383;28;20440;-48
2022/12/22 08:48:16;;;;;;;10.77;7.70;;;0.70;99.90;;;;;;5080657;28;21067;-49
2022/12/22 08:50:43;;;;;;;13.70;6.93;;;0.80;99.90;;;;;;5083132;28;20556;-49
2022/12/22 08:53:10;;;;;;;10.70;7.13;;;0.80;99.90;;;;;;5077162;28;20476;-51
2022/12/22 08:55:37;;;;;;;14.27;10.53;;;0.90;99.90;;;;;;5087616;28;20468;-48
2022/12/22 08:58:04;;;;;;;14.60;9.23;;;0.90;99.90;;;;;;5073350;28;20491;-47
2022/12/22 09:00:31;;;;;;;11.53;10.13;;;0.60;99.90;;;;;;5082249;28;20464;-48
2022/12/22 09:02:58;;;;;;;10.97;8.43;;;0.40;99.90;;;;;;5086873;28;20468;-48
2022/12/22 09:05:26;;;;;;;52.80;30.77;;;0.60;99.90;;;;;;5092851;28;20527;-47
2022/12/22 09:07:53;;;;;;;40.30;22.30;;;0.70;99.90;;;;;;5092092;28;20938;-48
2022/12/22 09:10:20;;;;;;;17.80;12.10;;;0.90;99.90;;;;;;5093421;28;20548;-48
2022/12/22 09:12:47;;;;;;;15.03;11.43;;;0.70;99.90;;;;;;5093049;28;20486;-48
2022/12/22 09:15:14;;;;;;;16.70;10.20;;;0.90;99.90;;;;;;5091599;28;20444;-48
2022/12/22 09:17:42;;;;;;;22.37;12.03;;;1.10;99.90;;;;;;5090442;28;20494;-49
2022/12/22 09:20:10;;;;;;;37.90;25.83;;;1.10;99.90;;;;;;5089537;28;20552;-48
2022/12/22 09:22:38;;;;;;;38.07;27.80;;;1.00;99.90;;;;;;5090221;28;20463;-48
2022/12/22 09:25:06;;;;;;;29.30;21.83;;;1.20;99.90;;;;;;5089936;28;20475;-48
2022/12/22 09:27:33;;;;;;;48.00;35.00;;;1.10;99.90;;;;;;5089609;28;21024;-48
2022/12/22 09:29:59;;;;;;;33.13;26.50;;;1.00;99.90;;;;;;5089918;28;20495;-48
2022/12/22 09:32:28;;;;;;;30.50;25.60;;;1.10;99.90;;;;;;5081748;28;20501;-48
2022/12/22 09:34:54;;;;;;;12.23;11.03;;;1.30;99.90;;;;;;5088023;28;20998;-48
2022/12/22 09:37:21;;;;;;;14.37;9.70;;;1.40;99.90;;;;;;5088403;28;20479;-49
2022/12/22 09:39:50;;;;;;;13.10;11.27;;;1.40;99.90;;;;;;5088164;28;20559;-49
2022/12/22 09:42:20;;;;;;;17.57;12.90;;;1.40;99.90;;;;;;5088239;28;20532;-48
2022/12/22 09:44:50;;;;;;;19.23;9.70;;;1.70;99.90;;;;;;5088337;28;20914;-49
2022/12/22 09:47:24;;;;;;;30.97;22.40;;;1.60;99.90;;;;;;5087419;28;20451;-49
2022/12/22 09:49:54;;;;;;;35.80;24.20;;;1.20;99.90;;;;;;5087460;28;20484;-48
2022/12/22 09:52:28;;;;;;;26.90;19.17;;;0.60;99.90;;;;;;5088250;28;21021;-49
2022/12/22 09:54:57;;;;;;;12.97;8.43;;;0.50;99.90;;;;;;5088743;28;20440;-48
2022/12/22 09:57:29;;;;;;;10.17;9.10;;;1.20;99.90;;;;;;5088581;28;20528;-48
2022/12/22 09:59:58;;;;;;;25.90;22.70;;;1.60;99.90;;;;;;5077217;28;20488;-48
2022/12/22 10:02:33;;;;;;;19.97;17.87;;;1.80;99.90;;;;;;5069127;28;20480;-49
2022/12/22 10:05:25;;;;;;;19.10;14.50;;;2.10;99.90;;;;;;5069095;28;21255;-48
2022/12/22 10:07:52;;;;;;;30.23;22.73;;;2.00;99.90;;;;;;5068727;28;20532;-48
2022/12/22 10:10:26;;;;;;;23.03;20.53;;;1.80;99.90;;;;;;5068467;28;20496;-49
2022/12/22 10:12:55;;;;;;;18.43;16.47;;;1.50;99.90;;;;;;5067391;28;21013;-46
2022/12/22 10:15:22;;;;;;;18.37;14.77;;;1.50;99.90;;;;;;5067401;28;20952;-50
2022/12/22 10:17:51;;;;;;;14.50;13.00;;;1.80;99.90;;;;;;5067510;28;20473;-49
2022/12/22 10:20:28;;;;;;;13.37;9.67;;;2.40;99.90;;;;;;5067825;28;20503;-48
2022/12/22 10:22:58;;;;;;;8.50;7.37;;;2.40;99.90;;;;;;5067401;28;20473;-48
2022/12/22 10:25:35;;;;;;;10.23;9.20;;;2.40;99.90;;;;;;5067214;28;20492;-49
2022/12/22 10:28:06;;;;;;;9.80;8.80;;;2.40;99.90;;;;;;5067188;28;20801;-48
2022/12/22 10:30:35;;;;;;;7.40;6.70;;;1.90;99.90;;;;;;5067237;28;20529;-49
2022/12/22 10:33:04;;;;;;;20.87;12.60;;;1.90;99.90;;;;;;5067601;28;20453;-48
2022/12/22 10:35:53;;;;;;;13.67;9.60;;;2.70;99.90;;;;;;5068445;28;20477;-48
2022/12/22 10:38:24;;;;;;;15.60;13.87;;;2.80;99.90;;;;;;5065416;28;20484;-48
2022/12/22 10:40:55;;;;;;;12.90;11.83;;;2.50;99.90;;;;;;5068069;28;20543;-49
2022/12/22 10:43:25;;;;;;;13.50;8.80;;;1.90;99.90;;;;;;5068180;28;20522;-47
2022/12/22 10:45:54;;;;;;;6.90;3.97;;;2.60;99.90;;;;;;5068328;28;21016;-48
2022/12/22 10:48:29;;;;;;;14.50;11.70;;;2.90;99.90;;;;;;5067829;28;20559;-48
2022/12/22 10:50:57;;;;;;;16.60;14.10;;;2.90;99.90;;;;;;5067961;28;20539;-48
2022/12/22 10:53:46;;;;;;;13.87;11.03;;;2.60;99.90;;;;;;5068730;28;20823;-48
2022/12/22 10:56:26;;;;;;;17.70;14.80;;;2.70;99.90;;;;;;5076013;28;20465;-48
2022/12/22 10:58:55;;;;;;;13.97;12.63;;;2.50;99.90;;;;;;5076527;28;20515;-49
2022/12/22 11:01:28;;;;;;;20.73;15.30;;;2.10;99.90;;;;;;5075166;28;20547;-49
2022/12/22 11:03:55;;;;;;;16.13;12.93;;;2.20;99.90;;;;;;5086652;28;20527;-48
2022/12/22 11:06:22;;;;;;;12.43;11.13;;;2.50;99.90;;;;;;5086341;28;20454;-48
2022/12/22 11:08:49;;;;;;;11.10;9.87;;;2.80;99.90;;;;;;5086411;28;20498;-50
2022/12/22 11:11:30;;;;;;;10.70;9.60;;;2.90;99.90;;;;;;5083850;28;20489;-49
2022/12/22 11:14:04;;;;;;;12.53;10.27;;;3.00;99.90;;;;;;5077435;28;20501;-48
2022/12/22 11:16:40;;;;;;;5.70;5.10;;;3.20;99.90;;;;;;5089705;28;20639;-48
2022/12/22 11:19:32;;;;;;;7.43;4.40;;;3.20;99.90;;;;;;5071894;28;20460;-48
2022/12/22 11:22:03;;;;;;;16.00;11.60;;;3.30;99.90;;;;;;5069816;28;20480;-49
2022/12/22 11:24:39;;;;;;;14.70;13.17;;;3.30;99.90;;;;;;5069254;28;21188;-48
2022/12/22 11:27:24;;;;;;;14.13;12.70;;;3.30;99.90;;;;;;5069839;28;20432;-48
2022/12/22 11:30:10;;;;;;;11.30;10.00;;;3.20;99.90;;;;;;5074237;28;20569;-48
2022/12/22 11:33:07;;;;;;;12.83;11.47;;;3.20;99.90;;;;;;5089472;28;20440;-49
2022/12/22 11:35:47;;;;;;;14.03;12.40;;;3.00;99.90;;;;;;5090089;28;20528;-48
2022/12/22 11:38:25;;;;;;;13.87;10.43;;;3.10;99.90;;;;;;5091040;28;20518;-48
2022/12/22 11:40:59;;;;;;;10.70;9.73;;;3.40;99.90;;;;;;5090806;28;20566;-48
2022/12/22 11:43:39;;;;;;;9.80;8.90;;;3.30;99.90;;;;;;5090786;28;20879;-50
2022/12/22 11:46:20;;;;;;;9.30;8.40;;;3.40;99.90;;;;;;5081333;28;20449;-50
2022/12/22 11:49:03;;;;;;;11.83;10.70;;;3.50;99.90;;;;;;5078483;28;20889;-48
2022/12/22 11:51:47;;;;;;;11.37;9.20;;;3.60;99.90;;;;;;5089616;28;20474;-51
2022/12/22 11:54:38;;;;;;;12.33;10.33;;;3.60;99.90;;;;;;5089928;28;20532;-49
2022/12/22 11:57:15;;;;;;;10.10;9.10;;;3.70;99.90;;;;;;5087431;28;20519;-49
2022/12/22 11:59:52;;;;;;;11.50;10.30;;;3.60;99.90;;;;;;5086818;28;20907;-49
2022/12/22 12:02:51;;;;;;;12.13;10.97;;;3.70;99.90;;;;;;5088069;28;20531;-49
2022/12/22 12:05:36;;;;;;;12.33;10.30;;;3.70;99.90;;;;;;5086206;28;20552;-49
2022/12/22 12:08:11;;;;;;;10.27;9.20;;;3.20;99.90;;;;;;5080419;28;20520;-49
2022/12/22 12:10:46;;;;;;;10.30;9.30;;;3.40;99.90;;;;;;5085226;28;20554;-49
2022/12/22 12:13:22;;;;;;;17.67;14.73;;;3.60;99.90;;;;;;5088521;28;20863;-48
2022/12/22 12:15:56;;;;;;;8.13;5.70;;;3.70;99.90;;;;;;5089084;28;21246;-49
2022/12/22 12:18:54;;;;;;;9.37;6.20;;;3.70;99.90;;;;;;5088976;28;20968;-49
2022/12/22 12:21:28;;;;;;;11.67;9.17;;;3.90;99.90;;;;;;5058656;28;20548;-49
2022/12/22 12:24:13;;;;;;;10.43;8.63;;;4.30;99.90;;;;;;5067788;28;20502;-48
2022/12/22 12:26:49;;;;;;;19.80;12.87;;;4.20;99.90;;;;;;5071381;28;20538;-49
2022/12/22 12:29:20;;;;;;;9.30;7.63;;;4.10;99.90;;;;;;5080586;28;20512;-50
2022/12/22 12:31:54;;;;;;;8.73;7.93;;;4.20;99.90;;;;;;5088905;28;20508;-49
2022/12/22 12:34:22;;;;;;;7.30;6.47;;;3.90;99.90;;;;;;5091312;28;20444;-48
2022/12/22 12:36:58;;;;;;;12.73;7.23;;;4.10;99.90;;;;;;5088856;28;20547;-48
2022/12/22 12:39:33;;;;;;;9.20;8.37;;;4.40;99.90;;;;;;5083428;28;20574;-48
2022/12/22 12:42:11;;;;;;;12.00;9.30;;;3.80;99.90;;;;;;5079901;28;20472;-49
2022/12/22 12:44:39;;;;;;;6.80;6.00;;;3.60;99.90;;;;;;5079683;28;20437;-48
2022/12/22 12:47:22;;;;;;;5.47;4.97;;;4.00;99.90;;;;;;5078289;28;20520;-48
2022/12/22 12:50:11;;;;;;;8.03;6.60;;;4.50;99.90;;;;;;5082007;28;20612;-51
2022/12/22 12:53:15;;;;;;;7.77;6.97;;;4.50;99.90;;;;;;5069843;28;20479;-48
2022/12/22 12:56:01;;;;;;;6.70;5.40;;;4.20;99.90;;;;;;5090630;28;20932;-49
2022/12/22 12:58:51;;;;;;;6.67;6.03;;;4.10;99.90;;;;;;5090733;28;20467;-48
2022/12/22 13:01:52;;;;;;;7.27;5.90;;;4.10;99.90;;;;;;5087342;28;20539;-51
2022/12/22 13:04:53;;;;;;;5.60;4.90;;;4.40;99.90;;;;;;5079475;28;20447;-50
2022/12/22 13:07:53;;;;;;;5.10;4.50;;;4.80;99.90;;;;;;5082641;28;20475;-49
2022/12/22 13:10:24;;;;;;;4.83;4.00;;;4.60;99.90;;;;;;5082782;28;20508;-49
2022/12/22 13:12:53;;;;;;;8.47;6.20;;;4.60;99.90;;;;;;5074603;28;20449;-48
2022/12/22 13:15:31;;;;;;;4.80;4.30;;;4.70;99.90;;;;;;5069732;28;20532;-49
2022/12/22 13:17:59;;;;;;;7.43;4.87;;;4.80;99.90;;;;;;5070080;28;21304;-48
2022/12/22 13:20:29;;;;;;;5.80;5.10;;;4.60;99.90;;;;;;5070191;28;20548;-48
2022/12/22 13:22:59;;;;;;;7.67;6.40;;;4.40;99.90;;;;;;5069694;28;20808;-50
2022/12/22 13:25:39;;;;;;;7.10;5.70;;;4.20;99.90;;;;;;5068884;28;20891;-48
2022/12/22 13:28:10;;;;;;;7.27;5.90;;;4.10;99.90;;;;;;5069837;28;20531;-49
2022/12/22 13:30:37;;;;;;;6.50;5.60;;;4.20;99.90;;;;;;5068679;28;20565;-49
2022/12/22 13:33:12;;;;;;;6.27;5.70;;;4.10;99.90;;;;;;5068246;28;20611;-49
2022/12/22 13:35:41;;;;;;;5.33;4.70;;;4.10;99.90;;;;;;5076268;28;20474;-48
2022/12/22 13:38:27;;;;;;;5.90;4.47;;;4.10;99.90;;;;;;5088342;28;20547;-48
2022/12/22 13:40:57;;;;;;;4.87;4.37;;;4.10;99.90;;;;;;5087743;28;20459;-50
2022/12/22 13:43:25;;;;;;;4.60;4.20;;;4.10;99.90;;;;;;5088246;28;20918;-49
2022/12/22 13:45:54;;;;;;;4.80;4.27;;;4.00;99.90;;;;;;5089151;28;20524;-48
2022/12/22 13:48:27;;;;;;;6.57;5.97;;;3.80;99.90;;;;;;5089640;28;20524;-49
2022/12/22 13:50:57;;;;;;;8.93;8.10;;;3.70;99.90;;;;;;5089337;28;20496;-49
2022/12/22 13:53:32;;;;;;;6.80;6.20;;;3.60;99.90;;;;;;5090308;28;20467;-48
2022/12/22 13:56:01;;;;;;;13.03;8.90;;;3.70;99.90;;;;;;5091492;28;20448;-49
2022/12/22 13:58:31;;;;;;;11.73;8.30;;;3.80;99.90;;;;;;5072454;28;20446;-50
2022/12/22 14:01:03;;;;;;;33.10;16.60;;;3.70;99.90;;;;;;5073038;28;20473;-49
2022/12/22 14:03:30;;;;;;;25.30;14.80;;;3.70;99.90;;;;;;5071576;28;20532;-50
2022/12/22 14:05:57;;;;;;;11.50;7.97;;;3.70;99.90;;;;;;5072301;28;20437;-49
2022/12/22 14:08:24;;;;;;;10.47;7.00;;;3.70;99.90;;;;;;5073129;28;20441;-49
2022/12/22 14:10:53;;;;;;;11.23;8.20;;;3.80;99.90;;;;;;5072814;28;20513;-49
2022/12/22 14:13:26;;;;;;;27.47;15.07;;;3.90;99.90;;;;;;5072555;28;20495;-49
2022/12/22 14:16:00;;;;;;;17.53;11.83;;;3.90;99.90;;;;;;5072580;28;20441;-49
2022/12/22 14:18:28;;;;;;;12.10;8.20;;;3.80;99.90;;;;;;5072980;28;20472;-51
2022/12/22 14:20:56;;;;;;;9.40;8.50;;;3.80;99.90;;;;;;5070581;28;20519;-51
2022/12/22 14:23:27;;;;;;;10.03;6.63;;;3.80;99.90;;;;;;5069897;28;20441;-49
2022/12/22 14:25:55;;;;;;;6.37;5.40;;;3.80;99.90;;;;;;5070193;28;21020;-52
2022/12/22 14:28:27;;;;;;;20.87;12.90;;;4.00;99.90;;;;;;5070265;28;20874;-50
2022/12/22 14:30:57;;;;;;;15.93;10.87;;;3.80;99.90;;;;;;5069643;28;20517;-51
2022/12/22 14:33:29;;;;;;;18.20;11.20;;;4.10;99.90;;;;;;5070017;28;20506;-49
2022/12/22 14:36:22;;;;;;;7.30;5.03;;;4.00;99.90;;;;;;5070723;28;20941;-51
2022/12/22 14:38:51;;;;;;;5.50;4.20;;;4.00;99.90;;;;;;5052186;28;20528;-49
2022/12/22 14:41:45;;;;;;;5.47;4.97;;;4.00;99.90;;;;;;5087668;22;20582;-50
2022/12/22 14:44:20;;;;;;;10.10;9.07;;;4.00;99.90;;;;;;5070631;28;20978;-50
2022/12/22 14:47:08;;;;;;;18.33;14.70;;;3.70;99.90;;;;;;5070755;28;20520;-50
2022/12/22 14:49:42;;;;;;;12.57;8.73;;;3.70;99.90;;;;;;5071149;28;20477;-49
2022/12/22 14:52:25;;;;;;;7.17;5.27;;;3.70;99.90;;;;;;5071098;28;20527;-51
2022/12/22 14:54:54;;;;;;;5.30;3.77;;;3.70;99.90;;;;;;5071227;28;20538;-52
2022/12/22 14:57:28;;;;;;;3.57;3.27;;;3.90;99.90;;;;;;5071238;28;20480;-49
2022/12/22 15:00:02;;;;;;;6.40;5.00;;;4.00;99.90;;;;;;5071137;28;20464;-49
2022/12/22 15:02:32;;;;;;;6.13;5.27;;;4.00;99.90;;;;;;5071281;28;20446;-49
2022/12/22 15:05:23;;;;;;;5.03;4.00;;;3.90;99.90;;;;;;5070821;28;20534;-50
2022/12/22 15:07:52;;;;;;;6.73;5.13;;;3.80;99.90;;;;;;5071175;28;20450;-51
2022/12/22 15:10:19;;;;;;;8.17;4.80;;;3.90;99.90;;;;;;5070862;28;20574;-52
2022/12/22 15:12:47;;;;;;;8.37;3.80;;;4.10;99.90;;;;;;5069629;28;20525;-52
2022/12/22 15:15:18;;;;;;;6.00;4.83;;;4.30;99.90;;;;;;5070325;28;20937;-52
2022/12/22 15:17:47;;;;;;;7.40;4.63;;;4.30;99.90;;;;;;5070450;28;20512;-52
2022/12/22 15:20:18;;;;;;;4.80;4.03;;;4.30;99.90;;;;;;5070598;28;20540;-51
2022/12/22 15:22:45;;;;;;;10.60;6.43;;;4.10;99.90;;;;;;5070404;28;20452;-52
2022/12/22 15:25:14;;;;;;;3.80;3.17;;;4.00;99.90;;;;;;5069437;28;20480;-51
2022/12/22 15:27:41;;;;;;;2.50;2.30;;;4.00;99.90;;;;;;5070732;28;20524;-51
2022/12/22 15:30:09;;;;;;;3.87;2.37;;;4.10;99.90;;;;;;5070545;28;20514;-53
2022/12/22 15:32:38;;;;;;;2.50;1.83;;;4.20;99.90;;;;;;5069294;28;20481;-52
2022/12/22 15:35:15;;;;;;;3.47;2.20;;;4.20;99.90;;;;;;5065860;28;20537;-53
2022/12/22 15:37:42;;;;;;;2.50;2.20;;;4.00;99.90;;;;;;5065302;28;20538;-52
2022/12/22 15:40:17;;;;;;;3.00;2.70;;;3.90;99.90;;;;;;5067573;28;20468;-52
2022/12/22 15:42:44;;;;;;;5.07;3.97;;;3.90;99.90;;;;;;5067968;28;20473;-52
2022/12/22 15:45:12;;;;;;;2.63;2.20;;;4.30;99.90;;;;;;5067401;28;20533;-53
2022/12/22 15:47:42;;;;;;;4.50;4.10;;;4.30;99.90;;;;;;5069348;28;20481;-52
2022/12/22 15:50:14;;;;;;;3.30;3.00;;;4.10;99.90;;;;;;5071197;28;20915;-52
2022/12/22 15:52:44;;;;;;;6.37;5.77;;;4.00;99.90;;;;;;5071140;28;20469;-52
2022/12/22 15:55:14;;;;;;;10.00;7.47;;;3.90;99.90;;;;;;5091024;28;20910;-52
2022/12/22 15:57:41;;;;;;;9.20;8.13;;;3.80;99.90;;;;;;5071404;28;20469;-51
2022/12/22 16:00:11;;;;;;;6.77;6.00;;;3.70;99.90;;;;;;5068316;28;21357;-51
2022/12/22 16:02:38;;;;;;;7.43;5.37;;;3.50;99.90;;;;;;5069409;28;20533;-53
2022/12/22 16:05:07;;;;;;;6.07;5.00;;;3.50;99.90;;;;;;5069891;28;21004;-52
2022/12/22 16:07:34;;;;;;;5.20;4.43;;;3.70;99.90;;;;;;5071126;28;20843;-51
2022/12/22 16:10:01;;;;;;;9.10;6.90;;;3.90;99.90;;;;;;5070315;28;20481;-52
2022/12/22 16:12:31;;;;;;;7.07;5.80;;;3.80;99.90;;;;;;5070808;28;20485;-54
2022/12/22 16:14:59;;;;;;;7.03;4.73;;;3.70;99.90;;;;;;5068687;28;20948;-51
2022/12/22 16:17:28;;;;;;;4.93;4.13;;;3.70;99.90;;;;;;5070487;28;20485;-52
2022/12/22 16:19:55;;;;;;;4.97;3.70;;;3.70;99.90;;;;;;5066867;28;20619;-53
2022/12/22 16:22:31;;;;;;;4.33;3.23;;;3.80;99.90;;;;;;5069081;28;20451;-53
2022/12/22 16:24:58;;;;;;;2.93;2.53;;;3.80;99.90;;;;;;5067094;28;20449;-53
2022/12/22 16:27:25;;;;;;;2.97;2.77;;;4.00;99.90;;;;;;5068819;28;20502;-52
2022/12/22 16:29:53;;;;;;;2.77;1.90;;;4.10;99.90;;;;;;5065915;28;20482;-53
2022/12/22 16:32:24;;;;;;;2.33;1.87;;;4.10;99.90;;;;;;5065467;28;20477;-52
2022/12/22 16:34:51;;;;;;;3.07;1.90;;;4.30;99.90;;;;;;5068811;28;20449;-53
2022/12/22 16:37:17;;;;;;;2.50;1.60;;;4.40;99.90;;;;;;5069787;28;20495;-52
2022/12/22 16:39:46;;;;;;;10.10;8.40;;;4.70;99.90;;;;;;5068604;28;20544;-52
2022/12/22 16:42:14;;;;;;;12.93;10.90;;;4.50;99.90;;;;;;5066405;28;20448;-52
2022/12/22 16:44:42;;;;;;;8.80;7.93;;;4.00;99.90;;;;;;5068874;28;20533;-53
2022/12/22 16:47:16;;;;;;;8.83;7.83;;;3.80;99.90;;;;;;5069287;28;20450;-54
2022/12/22 16:49:45;;;;;;;8.80;7.90;;;3.60;99.90;;;;;;5069014;28;20448;-52